createdAt,value
2022-11-30T00:01:09.183Z,3.032532
2022-11-30T00:02:16.978Z,3.01239
2022-11-30T00:03:26.827Z,3.002319
2022-11-30T00:04:36.472Z,3.032532
2022-11-30T00:05:44.398Z,3.042603
2022-11-30T00:06:54.048Z,3.072815
2022-11-30T00:08:02.916Z,3.052673
2022-11-30T00:09:12.669Z,3.082886
2022-11-30T00:10:22.531Z,3.052673
2022-11-30T00:11:30.254Z,3.072815
2022-11-30T00:12:40.026Z,3.042603
2022-11-30T00:13:49.766Z,3.042603
2022-11-30T00:14:58.731Z,3.032532
2022-11-30T00:16:08.624Z,3.01239
2022-11-30T00:17:17.404Z,3.01239
2022-11-30T00:18:26.071Z,3.042603
2022-11-30T00:19:35.826Z,3.042603
2022-11-30T00:20:45.602Z,3.052673
2022-11-30T00:21:55.482Z,3.042603
2022-11-30T00:23:04.259Z,3.042603
2022-11-30T00:24:12.004Z,3.052673
2022-11-30T00:25:21.799Z,3.042603
2022-11-30T00:26:29.578Z,3.042603
2022-11-30T00:27:38.549Z,3.042603
2022-11-30T00:28:48.307Z,3.032532
2022-11-30T00:29:56.988Z,3.01239
2022-11-30T00:31:06.814Z,3.032532
2022-11-30T00:32:15.513Z,3.032532
2022-11-30T00:33:24.348Z,3.01239
2022-11-30T00:34:34.041Z,3.042603
2022-11-30T00:35:43.735Z,3.032532
2022-11-30T00:36:53.591Z,3.042603
2022-11-30T00:38:03.463Z,3.042603
2022-11-30T00:39:12.149Z,3.052673
2022-11-30T00:40:22.043Z,3.052673
2022-11-30T00:41:30.821Z,3.052673
2022-11-30T00:42:38.824Z,3.052673
2022-11-30T00:43:48.530Z,3.052673
2022-11-30T00:44:57.290Z,3.052673
2022-11-30T00:46:06.272Z,3.042603
2022-11-30T00:47:15.866Z,2.982178
2022-11-30T00:48:24.661Z,2.972107
2022-11-30T00:49:34.359Z,2.951965
2022-11-30T00:50:44.047Z,2.921753
2022-11-30T00:51:51.938Z,2.891541
2022-11-30T00:53:01.793Z,2.901611
2022-11-30T00:54:09.559Z,2.901611
2022-11-30T00:55:18.529Z,2.921753
2022-11-30T00:56:28.374Z,2.901611
2022-11-30T00:57:38.122Z,2.921753
2022-11-30T00:58:47.998Z,2.861328
2022-11-30T00:59:56.715Z,2.851257
2022-11-30T01:01:05.532Z,2.851257
2022-11-30T01:02:15.248Z,2.861328
2022-11-30T01:03:22.984Z,2.861328
2022-11-30T01:04:31.798Z,2.861328
2022-11-30T01:05:41.777Z,2.861328
2022-11-30T01:06:50.548Z,2.891541
2022-11-30T01:08:00.337Z,2.891541
2022-11-30T01:09:09.076Z,2.921753
2022-11-30T01:10:17.895Z,2.871399
2022-11-30T01:11:26.642Z,2.851257
2022-11-30T01:12:36.467Z,2.851257
2022-11-30T01:13:46.340Z,2.851257
2022-11-30T01:14:54.147Z,2.831116
2022-11-30T01:16:02.971Z,2.851257
2022-11-30T01:17:12.838Z,2.851257
2022-11-30T01:18:22.533Z,2.861328
2022-11-30T01:19:32.261Z,2.891541
2022-11-30T01:20:41.166Z,2.891541
2022-11-30T01:21:49.072Z,2.800903
2022-11-30T01:22:58.789Z,2.821045
2022-11-30T01:24:07.665Z,2.800903
2022-11-30T01:25:17.460Z,2.750549
2022-11-30T01:26:27.221Z,2.790833
2022-11-30T01:27:34.987Z,2.800903
2022-11-30T01:28:44.731Z,2.821045
2022-11-30T01:29:54.490Z,2.861328
2022-11-30T01:31:02.356Z,2.851257
2022-11-30T01:32:12.044Z,2.861328
2022-11-30T01:33:20.825Z,2.861328
2022-11-30T01:34:29.590Z,2.891541
2022-11-30T01:35:39.413Z,2.921753
2022-11-30T01:36:48.188Z,2.891541
2022-11-30T01:37:58.101Z,2.861328
2022-11-30T01:39:07.779Z,2.871399
2022-11-30T01:40:16.606Z,2.851257
2022-11-30T01:41:26.461Z,2.861328
2022-11-30T01:42:34.297Z,2.831116
2022-11-30T01:43:44.037Z,2.821045
2022-11-30T01:44:54.059Z,2.800903
2022-11-30T01:46:02.975Z,2.800903
2022-11-30T01:47:12.776Z,2.800903
2022-11-30T01:48:21.611Z,2.800903
2022-11-30T01:49:31.541Z,2.790833
2022-11-30T01:50:41.420Z,2.790833
2022-11-30T01:51:49.149Z,2.790833
2022-11-30T01:52:58.059Z,2.800903
2022-11-30T01:54:07.989Z,2.800903
2022-11-30T01:55:16.910Z,2.800903
2022-11-30T01:56:26.707Z,2.821045
2022-11-30T01:57:35.504Z,2.831116
2022-11-30T01:58:44.398Z,2.851257
2022-11-30T01:59:54.204Z,2.821045
2022-11-30T02:01:03.125Z,2.821045
2022-11-30T02:02:13.004Z,2.821045
2022-11-30T02:03:22.798Z,2.831116
2022-11-30T02:04:31.618Z,2.851257
2022-11-30T02:05:41.465Z,2.861328
2022-11-30T02:06:51.467Z,2.831116
2022-11-30T02:08:00.408Z,2.851257
2022-11-30T02:09:10.024Z,2.821045
2022-11-30T02:10:19.896Z,2.821045
2022-11-30T02:11:28.626Z,2.851257
2022-11-30T02:12:38.613Z,2.861328
2022-11-30T02:13:47.512Z,2.891541
2022-11-30T02:14:57.418Z,2.901611
2022-11-30T02:16:06.312Z,2.901611
2022-11-30T02:17:16.123Z,2.921753
2022-11-30T02:18:26.039Z,2.972107
2022-11-30T02:19:34.899Z,2.921753
2022-11-30T02:20:45.028Z,2.921753
2022-11-30T02:21:54.912Z,2.871399
2022-11-30T02:23:04.804Z,2.861328
2022-11-30T02:24:14.551Z,2.861328
2022-11-30T02:25:23.398Z,2.871399
2022-11-30T02:26:32.258Z,2.871399
2022-11-30T02:27:42.192Z,2.861328
2022-11-30T02:28:51.001Z,2.831116
2022-11-30T02:29:59.862Z,2.821045
2022-11-30T02:31:09.736Z,2.821045
2022-11-30T02:32:18.437Z,2.821045
2022-11-30T02:33:28.211Z,2.851257
2022-11-30T02:34:36.969Z,2.871399
2022-11-30T02:35:44.832Z,2.861328
2022-11-30T02:36:55.683Z,2.891541
2022-11-30T02:38:03.367Z,2.901611
2022-11-30T02:39:12.180Z,2.921753
2022-11-30T02:40:22.046Z,2.921753
2022-11-30T02:41:34.948Z,2.931824
2022-11-30T02:42:40.709Z,2.931824
2022-11-30T02:43:50.511Z,2.972107
2022-11-30T02:44:58.353Z,2.931824
2022-11-30T02:46:08.221Z,2.931824
2022-11-30T02:47:16.920Z,2.901611
2022-11-30T02:48:26.730Z,2.891541
2022-11-30T02:49:36.635Z,2.871399
2022-11-30T02:50:46.356Z,2.901611
2022-11-30T02:51:56.157Z,2.891541
2022-11-30T02:53:05.088Z,2.891541
2022-11-30T02:54:13.818Z,2.861328
2022-11-30T02:55:23.822Z,2.871399
2022-11-30T02:56:32.551Z,2.871399
2022-11-30T02:57:42.425Z,2.861328
2022-11-30T02:58:52.167Z,2.851257
2022-11-30T03:00:00.920Z,2.861328
2022-11-30T03:01:10.794Z,2.871399
2022-11-30T03:02:20.577Z,2.901611
2022-11-30T03:03:29.263Z,2.891541
2022-11-30T03:04:39.263Z,2.871399
2022-11-30T03:05:47.034Z,2.851257
2022-11-30T03:06:56.841Z,2.871399
2022-11-30T03:08:06.644Z,2.871399
2022-11-30T03:09:15.498Z,2.921753
2022-11-30T03:10:24.476Z,2.931824
2022-11-30T03:11:33.343Z,2.931824
2022-11-30T03:12:43.009Z,2.931824
2022-11-30T03:13:51.773Z,2.931824
2022-11-30T03:14:59.632Z,2.931824
2022-11-30T03:16:09.599Z,2.931824
2022-11-30T03:17:20.473Z,2.921753
2022-11-30T03:18:30.382Z,2.921753
2022-11-30T03:19:40.294Z,2.931824
2022-11-30T03:20:49.102Z,2.931824
2022-11-30T03:21:59.022Z,2.951965
2022-11-30T03:23:07.827Z,2.951965
2022-11-30T03:24:16.752Z,2.982178
2022-11-30T03:25:26.535Z,3.002319
2022-11-30T03:26:35.248Z,2.982178
2022-11-30T03:27:44.025Z,3.002319
2022-11-30T03:28:53.720Z,3.002319
2022-11-30T03:30:01.369Z,3.002319
2022-11-30T03:31:11.245Z,3.002319
2022-11-30T03:32:20.872Z,3.002319
2022-11-30T03:33:28.754Z,3.002319
2022-11-30T03:34:38.601Z,3.01239
2022-11-30T03:35:47.497Z,3.01239
2022-11-30T03:36:56.322Z,3.032532
2022-11-30T03:38:06.071Z,3.01239
2022-11-30T03:39:14.086Z,3.042603
2022-11-30T03:40:23.802Z,3.032532
2022-11-30T03:41:33.498Z,3.032532
2022-11-30T03:42:42.303Z,3.032532
2022-11-30T03:43:52.068Z,3.032532
2022-11-30T03:45:00.902Z,3.032532
2022-11-30T03:46:09.734Z,3.042603
2022-11-30T03:47:19.471Z,3.032532
2022-11-30T03:48:28.315Z,3.01239
2022-11-30T03:49:38.111Z,3.052673
2022-11-30T03:50:48.072Z,3.052673
2022-11-30T03:51:55.773Z,3.052673
2022-11-30T03:53:05.565Z,3.103027
2022-11-30T03:54:15.419Z,3.052673
2022-11-30T03:55:25.257Z,3.082886
2022-11-30T03:56:34.104Z,3.082886
2022-11-30T03:57:42.951Z,3.072815
2022-11-30T03:58:52.813Z,3.082886
2022-11-30T04:00:02.651Z,3.082886
2022-11-30T04:01:11.510Z,3.072815
2022-11-30T04:02:21.445Z,3.103027
2022-11-30T04:03:29.377Z,3.072815
2022-11-30T04:04:39.158Z,3.103027
2022-11-30T04:05:49.030Z,3.082886
2022-11-30T04:06:56.760Z,3.082886
2022-11-30T04:08:06.852Z,3.052673
2022-11-30T04:09:16.743Z,3.082886
2022-11-30T04:10:25.625Z,3.082886
2022-11-30T04:11:35.492Z,3.072815
2022-11-30T04:12:43.337Z,3.072815
2022-11-30T04:13:52.188Z,3.103027
2022-11-30T04:15:02.031Z,3.103027
2022-11-30T04:16:11.004Z,3.13324
2022-11-30T04:17:20.681Z,3.13324
2022-11-30T04:18:29.704Z,3.143311
2022-11-30T04:19:37.613Z,3.163452
2022-11-30T04:20:47.455Z,3.143311
2022-11-30T04:21:56.265Z,3.13324
2022-11-30T04:23:05.019Z,3.13324
2022-11-30T04:24:14.974Z,3.103027
2022-11-30T04:25:22.900Z,3.113098
2022-11-30T04:26:32.724Z,3.13324
2022-11-30T04:27:41.605Z,3.13324
2022-11-30T04:28:50.397Z,3.143311
2022-11-30T04:30:01.223Z,3.143311
2022-11-30T04:31:10.022Z,3.143311
2022-11-30T04:32:18.794Z,3.143311
2022-11-30T04:33:28.584Z,3.13324
2022-11-30T04:34:37.372Z,3.13324
2022-11-30T04:35:47.138Z,3.13324
2022-11-30T04:37:00.190Z,3.113098
2022-11-30T04:38:04.859Z,3.113098
2022-11-30T04:39:14.757Z,3.113098
2022-11-30T04:40:24.666Z,3.13324
2022-11-30T04:41:33.549Z,3.13324
2022-11-30T04:42:43.514Z,3.143311
2022-11-30T04:43:52.290Z,3.13324
2022-11-30T04:45:02.154Z,3.13324
2022-11-30T04:46:12.024Z,3.163452
2022-11-30T04:47:20.887Z,3.143311
2022-11-30T04:48:29.694Z,3.143311
2022-11-30T04:49:38.648Z,3.13324
2022-11-30T04:50:47.600Z,3.13324
2022-11-30T04:51:57.553Z,3.103027
2022-11-30T04:53:07.471Z,3.082886
2022-11-30T04:54:17.229Z,3.082886
2022-11-30T04:55:26.058Z,3.082886
2022-11-30T04:56:33.873Z,3.103027
2022-11-30T04:57:43.626Z,3.103027
2022-11-30T04:58:51.378Z,3.082886
2022-11-30T05:00:01.151Z,3.103027
2022-11-30T05:01:10.897Z,3.103027
2022-11-30T05:02:19.910Z,3.082886
2022-11-30T05:03:29.872Z,3.042603
2022-11-30T05:04:39.636Z,3.052673
2022-11-30T05:05:47.524Z,3.052673
2022-11-30T05:06:57.434Z,3.042603
2022-11-30T05:08:06.230Z,3.032532
2022-11-30T05:09:16.023Z,3.032532
2022-11-30T05:10:24.885Z,3.032532
2022-11-30T05:11:34.952Z,3.042603
2022-11-30T05:12:44.886Z,3.032532
2022-11-30T05:13:53.617Z,3.032532
2022-11-30T05:15:03.415Z,3.01239
2022-11-30T05:16:12.348Z,3.042603
2022-11-30T05:17:20.087Z,3.042603
2022-11-30T05:18:29.913Z,3.042603
2022-11-30T05:19:37.679Z,3.042603
2022-11-30T05:20:47.700Z,3.072815
2022-11-30T05:21:57.634Z,3.103027
2022-11-30T05:23:05.541Z,3.103027
2022-11-30T05:24:15.423Z,3.082886
2022-11-30T05:25:25.258Z,3.072815
2022-11-30T05:26:34.053Z,3.072815
2022-11-30T05:27:43.868Z,3.082886
2022-11-30T05:28:52.656Z,3.052673
2022-11-30T05:30:01.701Z,3.072815
2022-11-30T05:31:11.644Z,3.082886
2022-11-30T05:32:19.449Z,3.072815
2022-11-30T05:33:29.140Z,3.052673
2022-11-30T05:34:49.955Z,3.072815
2022-11-30T05:35:49.970Z,3.082886
2022-11-30T05:36:59.920Z,3.072815
2022-11-30T05:38:08.837Z,3.052673
2022-11-30T05:39:17.646Z,3.072815
2022-11-30T05:40:27.517Z,3.072815
2022-11-30T05:41:36.542Z,3.072815
2022-11-30T05:42:46.312Z,3.082886
2022-11-30T05:43:55.325Z,3.082886
2022-11-30T05:45:03.229Z,3.052673
2022-11-30T05:46:13.347Z,3.042603
2022-11-30T05:47:22.145Z,3.042603
2022-11-30T05:48:31.982Z,3.042603
2022-11-30T05:49:41.744Z,3.032532
2022-11-30T05:50:50.615Z,3.052673
2022-11-30T05:52:00.420Z,3.052673
2022-11-30T05:53:10.217Z,3.042603
2022-11-30T05:54:21.075Z,3.072815
2022-11-30T05:55:30.874Z,3.072815
2022-11-30T05:56:40.609Z,3.052673
2022-11-30T05:57:51.410Z,3.042603
2022-11-30T05:59:01.106Z,3.052673
2022-11-30T06:00:09.877Z,3.052673
2022-11-30T06:01:19.619Z,3.052673
2022-11-30T06:02:28.693Z,3.052673
2022-11-30T06:03:38.154Z,3.042603
2022-11-30T06:04:47.902Z,3.042603
2022-11-30T06:05:55.493Z,3.032532
2022-11-30T06:07:04.216Z,3.052673
2022-11-30T06:08:13.950Z,3.082886
2022-11-30T06:09:22.705Z,3.082886
2022-11-30T06:10:32.372Z,3.103027
2022-11-30T06:11:42.041Z,3.113098
2022-11-30T06:12:50.703Z,3.082886
2022-11-30T06:14:00.386Z,3.082886
2022-11-30T06:15:09.096Z,3.052673
2022-11-30T06:16:17.811Z,3.072815
2022-11-30T06:17:27.466Z,3.052673
2022-11-30T06:18:35.150Z,3.042603
2022-11-30T06:19:44.796Z,3.042603
2022-11-30T06:20:53.511Z,3.183594
2022-11-30T06:22:02.194Z,3.314514
2022-11-30T06:23:11.892Z,3.324585
2022-11-30T06:24:21.550Z,3.284302
2022-11-30T06:25:31.222Z,3.26416
2022-11-30T06:26:40.912Z,3.233948
2022-11-30T06:27:50.597Z,3.193665
2022-11-30T06:29:00.254Z,3.163452
2022-11-30T06:30:09.921Z,3.183594
2022-11-30T06:31:17.649Z,3.163452
2022-11-30T06:32:27.302Z,3.072815
2022-11-30T06:33:35.970Z,3.032532
2022-11-30T06:34:45.974Z,3.01239
2022-11-30T06:35:55.321Z,3.002319
2022-11-30T06:37:03.999Z,3.01239
2022-11-30T06:38:13.678Z,3.032532
2022-11-30T06:39:36.840Z,3.01239
2022-11-30T06:40:32.961Z,3.01239
2022-11-30T06:41:42.656Z,3.01239
2022-11-30T06:42:51.300Z,3.01239
2022-11-30T06:44:01.001Z,3.002319
2022-11-30T06:45:10.676Z,2.972107
2022-11-30T06:46:19.400Z,2.972107
2022-11-30T06:47:28.001Z,2.972107
2022-11-30T06:48:36.669Z,2.982178
2022-11-30T06:49:44.465Z,2.982178
2022-11-30T06:50:54.165Z,2.982178
2022-11-30T06:52:02.810Z,3.002319
2022-11-30T06:53:11.465Z,3.01239
2022-11-30T06:54:21.146Z,3.01239
2022-11-30T06:55:29.841Z,3.032532
2022-11-30T06:56:39.467Z,3.042603
2022-11-30T06:57:49.155Z,3.072815
2022-11-30T06:58:56.797Z,3.072815
2022-11-30T07:00:06.490Z,3.072815
2022-11-30T07:01:14.368Z,3.072815
2022-11-30T07:02:22.851Z,3.052673
2022-11-30T07:03:32.514Z,3.052673
2022-11-30T07:04:41.191Z,3.052673
2022-11-30T07:05:50.867Z,3.072815
2022-11-30T07:06:58.546Z,3.072815
2022-11-30T07:08:08.224Z,3.072815
2022-11-30T07:09:16.888Z,3.082886
2022-11-30T07:10:26.554Z,3.082886
2022-11-30T07:11:36.253Z,3.13324
2022-11-30T07:12:45.909Z,3.143311
2022-11-30T07:13:54.564Z,3.163452
2022-11-30T07:15:04.237Z,3.143311
2022-11-30T07:16:11.946Z,3.143311
2022-11-30T07:17:21.571Z,3.113098
2022-11-30T07:18:32.195Z,3.13324
2022-11-30T07:19:38.050Z,3.13324
2022-11-30T07:20:47.742Z,3.13324
2022-11-30T07:21:56.408Z,3.143311
2022-11-30T07:23:05.088Z,3.183594
2022-11-30T07:24:14.830Z,3.183594
2022-11-30T07:25:23.509Z,3.183594
2022-11-30T07:26:33.189Z,3.183594
2022-11-30T07:27:42.013Z,3.213806
2022-11-30T07:28:49.666Z,3.213806
2022-11-30T07:29:59.363Z,3.213806
2022-11-30T07:31:10.932Z,3.213806
2022-11-30T07:32:17.723Z,3.213806
2022-11-30T07:33:26.390Z,3.223877
2022-11-30T07:34:34.078Z,3.233948
2022-11-30T07:35:43.774Z,3.254089
2022-11-30T07:36:53.681Z,3.254089
2022-11-30T07:38:04.195Z,3.233948
2022-11-30T07:39:10.773Z,3.223877
2022-11-30T07:40:18.449Z,3.223877
2022-11-30T07:41:28.146Z,3.233948
2022-11-30T07:42:37.795Z,3.254089
2022-11-30T07:43:45.483Z,3.294373
2022-11-30T07:44:58.595Z,3.294373
2022-11-30T07:46:04.811Z,3.364868
2022-11-30T07:47:13.483Z,3.405151
2022-11-30T07:48:23.230Z,3.445435
2022-11-30T07:49:30.927Z,3.465576
2022-11-30T07:50:40.636Z,3.475647
2022-11-30T07:51:50.308Z,3.465576
2022-11-30T07:53:00.316Z,3.475647
2022-11-30T07:54:09.981Z,3.445435
2022-11-30T07:55:18.648Z,3.465576
2022-11-30T07:56:26.306Z,3.465576
2022-11-30T07:57:36.018Z,3.475647
2022-11-30T07:58:44.700Z,3.465576
2022-11-30T07:59:53.377Z,3.505859
2022-11-30T08:01:03.151Z,3.505859
2022-11-30T08:02:10.745Z,3.526001
2022-11-30T08:03:20.357Z,3.505859
2022-11-30T08:04:31.081Z,3.495789
2022-11-30T08:05:39.855Z,3.475647
2022-11-30T08:06:49.568Z,3.495789
2022-11-30T08:07:57.284Z,3.495789
2022-11-30T08:09:05.909Z,3.526001
2022-11-30T08:10:16.577Z,3.546143
2022-11-30T08:11:24.233Z,3.556213
2022-11-30T08:12:33.931Z,3.576355
2022-11-30T08:13:42.597Z,3.586426
2022-11-30T08:15:18.594Z,3.596497
2022-11-30T08:16:01.948Z,3.616638
2022-11-30T08:17:12.589Z,3.626709
2022-11-30T08:18:20.248Z,3.687134
2022-11-30T08:19:29.928Z,3.727417
2022-11-30T08:20:38.587Z,3.757629
2022-11-30T08:21:49.372Z,3.7677
2022-11-30T08:22:58.044Z,3.7677
2022-11-30T08:24:06.751Z,3.7677
2022-11-30T08:25:16.370Z,3.7677
2022-11-30T08:26:24.031Z,3.737488
2022-11-30T08:27:32.769Z,3.777771
2022-11-30T08:28:42.428Z,3.737488
2022-11-30T08:29:50.072Z,3.757629
2022-11-30T08:30:59.786Z,3.737488
2022-11-30T08:32:08.474Z,3.7677
2022-11-30T08:33:16.120Z,3.797913
2022-11-30T08:34:25.794Z,3.797913
2022-11-30T08:35:33.482Z,3.828125
2022-11-30T08:36:45.887Z,3.858337
2022-11-30T08:37:52.805Z,3.858337
2022-11-30T08:39:00.480Z,3.878479
2022-11-30T08:40:10.144Z,3.908691
2022-11-30T08:41:19.807Z,3.938904
2022-11-30T08:42:27.487Z,3.938904
2022-11-30T08:43:37.156Z,3.938904
2022-11-30T08:44:44.846Z,3.908691
2022-11-30T08:45:54.357Z,3.938904
2022-11-30T08:47:03.199Z,3.938904
2022-11-30T08:48:10.941Z,3.989258
2022-11-30T08:49:22.406Z,3.979187
2022-11-30T08:50:30.267Z,3.989258
2022-11-30T08:52:08.590Z,3.959045
2022-11-30T08:52:50.568Z,3.948975
2022-11-30T08:53:59.248Z,3.938904
2022-11-30T08:55:07.899Z,3.918762
2022-11-30T08:56:17.693Z,3.959045
2022-11-30T08:57:26.369Z,3.989258
2022-11-30T08:58:36.029Z,3.989258
2022-11-30T08:59:44.773Z,4.009399
2022-11-30T09:02:02.039Z,4.009399
2022-11-30T09:03:11.714Z,3.959045
2022-11-30T09:04:21.405Z,3.948975
2022-11-30T09:05:31.040Z,3.959045
2022-11-30T09:06:40.714Z,3.979187
2022-11-30T09:07:50.454Z,3.989258
2022-11-30T09:08:59.061Z,4.01947
2022-11-30T09:10:08.744Z,4.009399
2022-11-30T09:11:18.416Z,4.009399
2022-11-30T09:12:27.086Z,4.039612
2022-11-30T09:13:36.776Z,4.039612
2022-11-30T09:14:49.686Z,4.059753
2022-11-30T09:15:56.142Z,4.130249
2022-11-30T09:17:05.770Z,4.130249
2022-11-30T09:18:15.447Z,4.160461
2022-11-30T09:19:25.182Z,4.220886
2022-11-30T09:20:34.799Z,4.230957
2022-11-30T09:21:49.729Z,4.281311
2022-11-30T09:22:53.187Z,4.311523
2022-11-30T09:24:01.787Z,4.341736
2022-11-30T09:25:11.590Z,4.412231
2022-11-30T09:26:20.273Z,4.422302
2022-11-30T09:27:28.919Z,4.452515
2022-11-30T09:28:38.711Z,4.452515
2022-11-30T09:29:47.310Z,4.482727
2022-11-30T09:30:56.092Z,4.482727
2022-11-30T09:32:05.722Z,4.482727
2022-11-30T09:33:14.390Z,4.502869
2022-11-30T09:34:23.063Z,4.482727
2022-11-30T09:35:32.811Z,4.492798
2022-11-30T09:36:41.472Z,4.52301
2022-11-30T09:37:51.139Z,4.563293
2022-11-30T09:38:59.799Z,4.603577
2022-11-30T09:40:07.480Z,4.623718
2022-11-30T09:41:17.189Z,4.623718
2022-11-30T09:42:27.079Z,4.633789
2022-11-30T09:43:35.577Z,4.674072
2022-11-30T09:44:45.637Z,4.704285
2022-11-30T09:45:53.974Z,4.734497
2022-11-30T09:47:03.603Z,4.754639
2022-11-30T09:48:13.302Z,4.804993
2022-11-30T09:49:21.985Z,4.815063
2022-11-30T09:50:31.662Z,4.855347
2022-11-30T09:51:40.351Z,4.89563
2022-11-30T09:52:50.017Z,4.925842
2022-11-30T09:53:59.712Z,4.935913
2022-11-30T09:55:07.370Z,4.966125
2022-11-30T09:56:17.026Z,4.966125
2022-11-30T09:57:26.694Z,4.956055
2022-11-30T09:58:35.366Z,4.956055
2022-11-30T09:59:45.078Z,4.986267
2022-11-30T10:00:53.755Z,5.046692
2022-11-30T10:02:03.493Z,5.076904
2022-11-30T10:03:13.215Z,5.076904
2022-11-30T10:04:21.780Z,5.107117
2022-11-30T10:05:31.472Z,5.137329
2022-11-30T10:06:40.147Z,5.1474
2022-11-30T10:07:48.961Z,5.177612
2022-11-30T10:08:58.513Z,5.197754
2022-11-30T10:10:30.732Z,5.177612
2022-11-30T10:11:16.861Z,5.167542
2022-11-30T10:12:26.533Z,5.137329
2022-11-30T10:13:35.219Z,5.046692
2022-11-30T10:14:45.260Z,4.986267
2022-11-30T10:15:54.669Z,4.956055
2022-11-30T10:17:02.277Z,4.966125
2022-11-30T10:18:11.963Z,4.915771
2022-11-30T10:19:19.610Z,4.835205
2022-11-30T10:20:28.266Z,4.885559
2022-11-30T10:21:37.943Z,4.89563
2022-11-30T10:22:45.642Z,4.915771
2022-11-30T10:23:55.332Z,4.935913
2022-11-30T10:25:10.274Z,4.986267
2022-11-30T10:26:14.649Z,4.956055
2022-11-30T10:27:24.314Z,4.89563
2022-11-30T10:28:48.442Z,4.855347
2022-11-30T10:29:42.748Z,4.804993
2022-11-30T10:30:52.452Z,4.77478
2022-11-30T10:32:00.100Z,4.754639
2022-11-30T10:33:09.737Z,4.744568
2022-11-30T10:34:19.455Z,4.77478
2022-11-30T10:35:27.100Z,4.804993
2022-11-30T10:36:36.790Z,4.855347
2022-11-30T10:37:44.461Z,4.855347
2022-11-30T10:38:53.121Z,4.865417
2022-11-30T10:40:02.855Z,4.865417
2022-11-30T10:41:11.487Z,4.865417
2022-11-30T10:42:21.222Z,4.89563
2022-11-30T10:43:30.888Z,4.89563
2022-11-30T10:44:39.571Z,4.89563
2022-11-30T10:45:49.261Z,4.915771
2022-11-30T10:46:58.003Z,4.925842
2022-11-30T10:48:07.623Z,4.925842
2022-11-30T10:49:17.293Z,4.935913
2022-11-30T10:50:24.949Z,4.966125
2022-11-30T10:51:34.639Z,4.986267
2022-11-30T10:52:43.323Z,5.016479
2022-11-30T10:53:51.270Z,4.996338
2022-11-30T10:55:04.737Z,4.966125
2022-11-30T10:56:10.625Z,4.925842
2022-11-30T10:57:19.295Z,4.865417
2022-11-30T10:58:28.995Z,4.835205
2022-11-30T10:59:37.645Z,4.855347
2022-11-30T11:00:47.321Z,4.855347
2022-11-30T11:01:57.018Z,4.89563
2022-11-30T11:03:06.845Z,4.925842
2022-11-30T11:04:16.550Z,4.966125
2022-11-30T11:05:26.193Z,5.016479
2022-11-30T11:06:35.904Z,5.066833
2022-11-30T11:07:43.590Z,5.107117
2022-11-30T11:08:52.223Z,5.107117
2022-11-30T11:10:01.903Z,5.137329
2022-11-30T11:11:11.580Z,5.197754
2022-11-30T11:12:21.265Z,5.227966
2022-11-30T11:13:30.899Z,5.258179
2022-11-30T11:14:38.604Z,5.27832
2022-11-30T11:15:48.313Z,5.227966
2022-11-30T11:16:56.939Z,5.167542
2022-11-30T11:18:05.598Z,5.107117
2022-11-30T11:19:15.272Z,5.097046
2022-11-30T11:20:23.972Z,5.076904
2022-11-30T11:21:33.673Z,5.107117
2022-11-30T11:22:42.328Z,5.076904
2022-11-30T11:23:51.020Z,5.046692
2022-11-30T11:25:00.698Z,5.036621
2022-11-30T11:26:09.387Z,4.986267
2022-11-30T11:27:18.050Z,5.016479
2022-11-30T11:28:27.769Z,5.016479
2022-11-30T11:29:36.391Z,5.036621
2022-11-30T11:30:46.136Z,5.016479
2022-11-30T11:31:54.921Z,5.036621
2022-11-30T11:33:04.590Z,5.046692
2022-11-30T11:34:14.261Z,5.107117
2022-11-30T11:35:21.929Z,5.117188
2022-11-30T11:36:30.595Z,5.117188
2022-11-30T11:37:40.298Z,5.066833
2022-11-30T11:38:48.961Z,5.046692
2022-11-30T11:39:58.646Z,5.066833
2022-11-30T11:41:08.311Z,5.066833
2022-11-30T11:42:19.126Z,5.046692
2022-11-30T11:43:25.685Z,5.097046
2022-11-30T11:44:33.372Z,5.107117
2022-11-30T11:45:43.030Z,5.107117
2022-11-30T11:46:52.778Z,5.107117
2022-11-30T11:48:01.383Z,5.107117
2022-11-30T11:49:11.054Z,5.117188
2022-11-30T11:50:27.262Z,5.137329
2022-11-30T11:51:31.359Z,5.107117
2022-11-30T11:52:41.019Z,5.107117
2022-11-30T11:53:53.207Z,5.076904
2022-11-30T11:54:57.348Z,4.996338
2022-11-30T11:56:07.019Z,4.966125
2022-11-30T11:57:14.691Z,4.935913
2022-11-30T11:58:23.366Z,4.935913
2022-11-30T11:59:32.608Z,4.925842
2022-11-30T12:00:41.813Z,4.915771
2022-11-30T12:01:51.499Z,4.925842
2022-11-30T12:03:00.219Z,4.925842
2022-11-30T12:04:08.961Z,4.956055
2022-11-30T12:05:18.545Z,4.956055
2022-11-30T12:06:28.390Z,5.016479
2022-11-30T12:07:38.118Z,5.036621
2022-11-30T12:08:47.756Z,5.046692
2022-11-30T12:09:57.415Z,5.016479
2022-11-30T12:11:08.076Z,4.996338
2022-11-30T12:12:17.554Z,4.935913
2022-11-30T12:13:26.279Z,4.925842
2022-11-30T12:14:34.950Z,4.956055
2022-11-30T12:15:42.677Z,4.935913
2022-11-30T12:16:52.298Z,4.925842
2022-11-30T12:18:02.008Z,4.89563
2022-11-30T12:19:12.623Z,4.865417
2022-11-30T12:20:22.296Z,4.855347
2022-11-30T12:21:30.968Z,4.89563
2022-11-30T12:22:40.632Z,4.89563
2022-11-30T12:23:50.322Z,4.915771
2022-11-30T12:25:01.336Z,4.935913
2022-11-30T12:26:07.653Z,4.935913
2022-11-30T12:27:17.309Z,4.966125
2022-11-30T12:28:24.980Z,4.956055
2022-11-30T12:29:34.700Z,4.935913
2022-11-30T12:30:42.377Z,4.956055
2022-11-30T12:31:52.052Z,4.986267
2022-11-30T12:33:01.781Z,4.996338
2022-11-30T12:34:10.416Z,4.996338
2022-11-30T12:35:20.197Z,4.996338
2022-11-30T12:36:28.892Z,4.996338
2022-11-30T12:37:38.013Z,5.016479
2022-11-30T12:38:48.199Z,5.016479
2022-11-30T12:39:55.866Z,5.046692
2022-11-30T12:41:04.564Z,5.076904
2022-11-30T12:42:14.223Z,5.117188
2022-11-30T12:43:23.898Z,5.167542
2022-11-30T12:44:38.458Z,5.207825
2022-11-30T12:45:43.225Z,5.248108
2022-11-30T12:46:51.994Z,5.27832
2022-11-30T12:48:01.635Z,5.298462
2022-11-30T12:49:10.387Z,5.318604
2022-11-30T12:50:18.957Z,5.318604
2022-11-30T12:51:30.063Z,5.318604
2022-11-30T12:52:36.499Z,5.318604
2022-11-30T12:53:46.146Z,5.318604
2022-11-30T12:54:55.830Z,5.27832
2022-11-30T12:56:04.503Z,5.207825
2022-11-30T12:57:14.189Z,5.258179
2022-11-30T12:58:23.868Z,5.298462
2022-11-30T12:59:33.551Z,5.328674
2022-11-30T13:00:42.318Z,5.348816
2022-11-30T13:01:50.954Z,5.358887
2022-11-30T13:03:00.593Z,5.379028
2022-11-30T13:04:08.332Z,5.358887
2022-11-30T13:05:18.032Z,5.379028
2022-11-30T13:06:27.691Z,5.328674
2022-11-30T13:07:35.440Z,5.328674
2022-11-30T13:08:45.051Z,5.358887
2022-11-30T13:09:52.939Z,5.389099
2022-11-30T13:11:01.611Z,5.439453
2022-11-30T13:12:11.277Z,5.429382
2022-11-30T13:13:20.945Z,5.409241
2022-11-30T13:14:30.615Z,5.379028
2022-11-30T13:15:39.303Z,5.409241
2022-11-30T13:16:47.976Z,5.409241
2022-11-30T13:17:57.649Z,5.429382
2022-11-30T13:19:06.376Z,5.409241
2022-11-30T13:20:15.980Z,5.429382
2022-11-30T13:21:25.718Z,5.429382
2022-11-30T13:22:35.394Z,5.429382
2022-11-30T13:23:45.055Z,5.429382
2022-11-30T13:24:53.713Z,5.429382
2022-11-30T13:26:09.903Z,5.409241
2022-11-30T13:27:12.038Z,5.429382
2022-11-30T13:28:19.713Z,5.389099
2022-11-30T13:29:29.484Z,5.358887
2022-11-30T13:30:39.148Z,5.389099
2022-11-30T13:31:47.849Z,5.358887
2022-11-30T13:32:58.659Z,5.358887
2022-11-30T13:34:07.187Z,5.328674
2022-11-30T13:35:15.858Z,5.358887
2022-11-30T13:36:25.557Z,5.358887